sensor_id;sensor_type;location;lat;lon;timestamp;P1;durP1;ratioP1;P2;durP2;ratioP2
4432;SDS011;2229;48.708;9.706;2023-05-02T00:01:43;7.07;;;3.40;;
4432;SDS011;2229;48.708;9.706;2023-05-02T00:04:10;4.37;;;2.30;;
4432;SDS011;2229;48.708;9.706;2023-05-02T00:06:38;4.27;;;2.20;;
4432;SDS011;2229;48.708;9.706;2023-05-02T00:09:06;3.50;;;2.30;;
4432;SDS011;2229;48.708;9.706;2023-05-02T00:11:35;5.00;;;2.50;;
4432;SDS011;2229;48.708;9.706;2023-05-02T00:14:02;8.30;;;2.23;;
4432;SDS011;2229;48.708;9.706;2023-05-02T00:16:29;4.10;;;2.43;;
4432;SDS011;2229;48.708;9.706;2023-05-02T00:18:57;4.10;;;2.30;;
4432;SDS011;2229;48.708;9.706;2023-05-02T00:21:24;3.40;;;2.07;;
4432;SDS011;2229;48.708;9.706;2023-05-02T00:23:53;4.90;;;2.37;;
4432;SDS011;2229;48.708;9.706;2023-05-02T00:26:21;4.67;;;2.40;;
4432;SDS011;2229;48.708;9.706;2023-05-02T00:28:50;5.50;;;2.60;;
4432;SDS011;2229;48.708;9.706;2023-05-02T00:31:17;2.70;;;1.70;;
4432;SDS011;2229;48.708;9.706;2023-05-02T00:33:45;4.03;;;2.20;;
4432;SDS011;2229;48.708;9.706;2023-05-02T00:36:12;4.43;;;2.63;;
4432;SDS011;2229;48.708;9.706;2023-05-02T00:38:40;3.33;;;2.70;;
4432;SDS011;2229;48.708;9.706;2023-05-02T00:41:07;6.97;;;2.67;;
4432;SDS011;2229;48.708;9.706;2023-05-02T00:43:34;15.40;;;2.83;;
4432;SDS011;2229;48.708;9.706;2023-05-02T00:46:05;3.73;;;1.90;;
4432;SDS011;2229;48.708;9.706;2023-05-02T00:48:32;3.97;;;2.53;;
4432;SDS011;2229;48.708;9.706;2023-05-02T00:51:01;8.10;;;2.53;;
4432;SDS011;2229;48.708;9.706;2023-05-02T00:53:31;5.57;;;2.10;;
4432;SDS011;2229;48.708;9.706;2023-05-02T00:55:58;3.70;;;2.33;;
4432;SDS011;2229;48.708;9.706;2023-05-02T00:58:27;4.87;;;2.63;;
4432;SDS011;2229;48.708;9.706;2023-05-02T01:00:58;3.73;;;2.10;;
4432;SDS011;2229;48.708;9.706;2023-05-02T01:03:39;3.60;;;2.37;;
4432;SDS011;2229;48.708;9.706;2023-05-02T01:06:15;4.33;;;2.50;;
4432;SDS011;2229;48.708;9.706;2023-05-02T01:08:54;4.33;;;1.80;;
4432;SDS011;2229;48.708;9.706;2023-05-02T01:11:36;4.07;;;2.30;;
4432;SDS011;2229;48.708;9.706;2023-05-02T01:14:10;4.90;;;3.17;;
4432;SDS011;2229;48.708;9.706;2023-05-02T01:16:39;4.97;;;2.47;;
4432;SDS011;2229;48.708;9.706;2023-05-02T01:19:11;3.20;;;2.10;;
4432;SDS011;2229;48.708;9.706;2023-05-02T01:21:47;3.50;;;2.20;;
4432;SDS011;2229;48.708;9.706;2023-05-02T01:24:18;5.40;;;2.93;;
4432;SDS011;2229;48.708;9.706;2023-05-02T01:26:51;4.10;;;2.00;;
4432;SDS011;2229;48.708;9.706;2023-05-02T01:29:28;4.37;;;2.73;;
4432;SDS011;2229;48.708;9.706;2023-05-02T01:31:57;3.67;;;2.60;;
4432;SDS011;2229;48.708;9.706;2023-05-02T01:34:27;4.73;;;2.80;;
4432;SDS011;2229;48.708;9.706;2023-05-02T01:36:56;6.50;;;2.63;;
4432;SDS011;2229;48.708;9.706;2023-05-02T01:39:26;4.70;;;2.60;;
4432;SDS011;2229;48.708;9.706;2023-05-02T01:41:54;4.83;;;2.50;;
4432;SDS011;2229;48.708;9.706;2023-05-02T01:44:23;4.07;;;2.60;;
4432;SDS011;2229;48.708;9.706;2023-05-02T01:46:54;4.20;;;2.20;;
4432;SDS011;2229;48.708;9.706;2023-05-02T01:49:23;5.17;;;2.77;;
4432;SDS011;2229;48.708;9.706;2023-05-02T01:51:52;3.73;;;2.30;;
4432;SDS011;2229;48.708;9.706;2023-05-02T01:54:20;4.43;;;2.50;;
4432;SDS011;2229;48.708;9.706;2023-05-02T01:56:50;4.07;;;2.23;;
4432;SDS011;2229;48.708;9.706;2023-05-02T01:59:18;4.43;;;2.07;;
4432;SDS011;2229;48.708;9.706;2023-05-02T02:01:48;4.67;;;2.27;;
4432;SDS011;2229;48.708;9.706;2023-05-02T02:04:19;4.97;;;1.90;;
4432;SDS011;2229;48.708;9.706;2023-05-02T02:06:49;3.37;;;2.10;;
4432;SDS011;2229;48.708;9.706;2023-05-02T02:09:20;4.00;;;2.30;;
4432;SDS011;2229;48.708;9.706;2023-05-02T02:11:48;6.43;;;3.00;;
4432;SDS011;2229;48.708;9.706;2023-05-02T02:14:20;4.77;;;2.30;;
4432;SDS011;2229;48.708;9.706;2023-05-02T02:16:52;3.40;;;2.10;;
4432;SDS011;2229;48.708;9.706;2023-05-02T02:19:23;5.77;;;3.10;;
4432;SDS011;2229;48.708;9.706;2023-05-02T02:21:51;5.17;;;2.40;;
4432;SDS011;2229;48.708;9.706;2023-05-02T02:24:20;5.63;;;2.80;;
4432;SDS011;2229;48.708;9.706;2023-05-02T02:26:49;4.13;;;2.83;;
4432;SDS011;2229;48.708;9.706;2023-05-02T02:29:17;5.40;;;2.80;;
4432;SDS011;2229;48.708;9.706;2023-05-02T02:31:45;5.73;;;4.13;;
4432;SDS011;2229;48.708;9.706;2023-05-02T02:34:13;5.17;;;2.90;;
4432;SDS011;2229;48.708;9.706;2023-05-02T02:36:44;5.83;;;3.27;;
4432;SDS011;2229;48.708;9.706;2023-05-02T02:39:17;7.47;;;3.13;;
4432;SDS011;2229;48.708;9.706;2023-05-02T02:41:56;6.83;;;2.60;;
4432;SDS011;2229;48.708;9.706;2023-05-02T02:44:34;3.47;;;1.90;;
4432;SDS011;2229;48.708;9.706;2023-05-02T02:47:09;9.63;;;2.90;;
4432;SDS011;2229;48.708;9.706;2023-05-02T02:49:46;4.57;;;2.73;;
4432;SDS011;2229;48.708;9.706;2023-05-02T02:52:20;4.17;;;2.03;;
4432;SDS011;2229;48.708;9.706;2023-05-02T02:55:04;4.73;;;2.60;;
4432;SDS011;2229;48.708;9.706;2023-05-02T02:57:36;4.33;;;2.70;;
4432;SDS011;2229;48.708;9.706;2023-05-02T03:00:12;4.70;;;2.80;;
4432;SDS011;2229;48.708;9.706;2023-05-02T03:02:44;4.93;;;2.70;;
4432;SDS011;2229;48.708;9.706;2023-05-02T03:05:13;7.73;;;3.53;;
4432;SDS011;2229;48.708;9.706;2023-05-02T03:07:42;6.50;;;3.37;;
4432;SDS011;2229;48.708;9.706;2023-05-02T03:10:09;4.43;;;2.73;;
4432;SDS011;2229;48.708;9.706;2023-05-02T03:12:38;6.70;;;3.40;;
4432;SDS011;2229;48.708;9.706;2023-05-02T03:15:19;4.20;;;2.53;;
4432;SDS011;2229;48.708;9.706;2023-05-02T03:17:58;5.37;;;2.93;;
4432;SDS011;2229;48.708;9.706;2023-05-02T03:20:25;4.43;;;2.30;;
4432;SDS011;2229;48.708;9.706;2023-05-02T03:22:53;6.20;;;3.03;;
4432;SDS011;2229;48.708;9.706;2023-05-02T03:25:20;7.50;;;3.67;;
4432;SDS011;2229;48.708;9.706;2023-05-02T03:27:49;7.17;;;4.13;;
4432;SDS011;2229;48.708;9.706;2023-05-02T03:30:16;8.30;;;3.60;;
4432;SDS011;2229;48.708;9.706;2023-05-02T03:32:44;6.90;;;3.00;;
4432;SDS011;2229;48.708;9.706;2023-05-02T03:35:11;6.37;;;3.13;;
4432;SDS011;2229;48.708;9.706;2023-05-02T03:37:42;6.67;;;3.37;;
4432;SDS011;2229;48.708;9.706;2023-05-02T03:40:11;6.10;;;3.50;;
4432;SDS011;2229;48.708;9.706;2023-05-02T03:42:40;5.60;;;2.50;;
4432;SDS011;2229;48.708;9.706;2023-05-02T03:45:20;5.03;;;2.50;;
4432;SDS011;2229;48.708;9.706;2023-05-02T03:47:49;6.27;;;2.67;;
4432;SDS011;2229;48.708;9.706;2023-05-02T03:50:17;5.50;;;3.10;;
4432;SDS011;2229;48.708;9.706;2023-05-02T03:52:46;7.23;;;3.00;;
4432;SDS011;2229;48.708;9.706;2023-05-02T03:55:19;5.40;;;2.87;;
4432;SDS011;2229;48.708;9.706;2023-05-02T03:57:47;11.13;;;4.17;;
4432;SDS011;2229;48.708;9.706;2023-05-02T04:00:14;6.57;;;3.20;;
4432;SDS011;2229;48.708;9.706;2023-05-02T04:02:48;4.83;;;2.70;;
4432;SDS011;2229;48.708;9.706;2023-05-02T04:05:19;7.37;;;4.00;;
4432;SDS011;2229;48.708;9.706;2023-05-02T04:07:48;10.73;;;4.40;;
4432;SDS011;2229;48.708;9.706;2023-05-02T04:10:15;6.57;;;3.40;;
4432;SDS011;2229;48.708;9.706;2023-05-02T04:12:51;8.33;;;4.60;;
4432;SDS011;2229;48.708;9.706;2023-05-02T04:15:19;5.70;;;2.73;;
4432;SDS011;2229;48.708;9.706;2023-05-02T04:17:47;7.63;;;4.23;;
4432;SDS011;2229;48.708;9.706;2023-05-02T04:20:15;8.37;;;3.80;;
4432;SDS011;2229;48.708;9.706;2023-05-02T04:22:47;5.97;;;2.97;;
4432;SDS011;2229;48.708;9.706;2023-05-02T04:25:15;8.07;;;4.03;;
4432;SDS011;2229;48.708;9.706;2023-05-02T04:27:42;4.33;;;2.87;;
4432;SDS011;2229;48.708;9.706;2023-05-02T04:30:15;6.43;;;3.23;;
4432;SDS011;2229;48.708;9.706;2023-05-02T04:32:49;5.70;;;2.60;;
4432;SDS011;2229;48.708;9.706;2023-05-02T04:35:17;6.43;;;3.47;;
4432;SDS011;2229;48.708;9.706;2023-05-02T04:37:45;6.97;;;3.70;;
4432;SDS011;2229;48.708;9.706;2023-05-02T04:40:14;6.97;;;3.37;;
4432;SDS011;2229;48.708;9.706;2023-05-02T04:42:44;7.33;;;3.20;;
4432;SDS011;2229;48.708;9.706;2023-05-02T04:45:19;9.47;;;4.30;;
4432;SDS011;2229;48.708;9.706;2023-05-02T04:47:47;9.23;;;4.67;;
4432;SDS011;2229;48.708;9.706;2023-05-02T04:50:15;11.97;;;3.90;;
4432;SDS011;2229;48.708;9.706;2023-05-02T04:52:43;3.97;;;2.50;;
4432;SDS011;2229;48.708;9.706;2023-05-02T04:55:10;7.67;;;3.60;;
4432;SDS011;2229;48.708;9.706;2023-05-02T04:57:38;8.33;;;4.47;;
4432;SDS011;2229;48.708;9.706;2023-05-02T05:00:07;6.50;;;4.43;;
4432;SDS011;2229;48.708;9.706;2023-05-02T05:02:36;9.57;;;3.60;;
4432;SDS011;2229;48.708;9.706;2023-05-02T05:05:04;8.30;;;3.67;;
4432;SDS011;2229;48.708;9.706;2023-05-02T05:07:32;8.77;;;4.30;;
4432;SDS011;2229;48.708;9.706;2023-05-02T05:09:59;9.83;;;3.93;;
4432;SDS011;2229;48.708;9.706;2023-05-02T05:12:32;6.07;;;3.80;;
4432;SDS011;2229;48.708;9.706;2023-05-02T05:14:59;8.73;;;4.43;;
4432;SDS011;2229;48.708;9.706;2023-05-02T05:17:28;5.90;;;3.23;;
4432;SDS011;2229;48.708;9.706;2023-05-02T05:19:56;4.43;;;2.80;;
4432;SDS011;2229;48.708;9.706;2023-05-02T05:22:24;5.67;;;2.90;;
4432;SDS011;2229;48.708;9.706;2023-05-02T05:24:51;4.40;;;3.10;;
4432;SDS011;2229;48.708;9.706;2023-05-02T05:27:22;5.33;;;3.33;;
4432;SDS011;2229;48.708;9.706;2023-05-02T05:29:49;7.47;;;2.93;;
4432;SDS011;2229;48.708;9.706;2023-05-02T05:32:17;9.37;;;2.83;;
4432;SDS011;2229;48.708;9.706;2023-05-02T05:34:44;5.60;;;2.90;;
4432;SDS011;2229;48.708;9.706;2023-05-02T05:37:13;7.50;;;3.63;;
4432;SDS011;2229;48.708;9.706;2023-05-02T05:39:41;8.07;;;3.93;;
4432;SDS011;2229;48.708;9.706;2023-05-02T05:42:08;8.80;;;3.60;;
4432;SDS011;2229;48.708;9.706;2023-05-02T05:44:38;5.63;;;3.13;;
4432;SDS011;2229;48.708;9.706;2023-05-02T05:47:06;5.73;;;2.83;;
4432;SDS011;2229;48.708;9.706;2023-05-02T05:49:35;6.70;;;3.10;;
4432;SDS011;2229;48.708;9.706;2023-05-02T05:52:02;8.30;;;3.50;;
4432;SDS011;2229;48.708;9.706;2023-05-02T05:54:32;6.60;;;2.50;;
4432;SDS011;2229;48.708;9.706;2023-05-02T05:56:59;5.80;;;2.60;;
4432;SDS011;2229;48.708;9.706;2023-05-02T05:59:28;5.33;;;2.23;;
4432;SDS011;2229;48.708;9.706;2023-05-02T06:01:56;6.20;;;2.80;;
4432;SDS011;2229;48.708;9.706;2023-05-02T06:04:24;6.17;;;3.37;;
4432;SDS011;2229;48.708;9.706;2023-05-02T06:06:52;6.27;;;3.30;;
4432;SDS011;2229;48.708;9.706;2023-05-02T06:09:20;6.33;;;4.07;;
4432;SDS011;2229;48.708;9.706;2023-05-02T06:11:49;6.57;;;2.97;;
4432;SDS011;2229;48.708;9.706;2023-05-02T06:14:16;6.43;;;3.53;;
4432;SDS011;2229;48.708;9.706;2023-05-02T06:16:46;4.60;;;2.90;;
4432;SDS011;2229;48.708;9.706;2023-05-02T06:19:13;6.83;;;3.40;;
4432;SDS011;2229;48.708;9.706;2023-05-02T06:21:40;5.47;;;3.07;;
4432;SDS011;2229;48.708;9.706;2023-05-02T06:24:08;4.93;;;2.97;;
4432;SDS011;2229;48.708;9.706;2023-05-02T06:26:36;4.47;;;2.80;;
4432;SDS011;2229;48.708;9.706;2023-05-02T06:29:04;6.03;;;3.93;;
4432;SDS011;2229;48.708;9.706;2023-05-02T06:31:31;4.83;;;3.13;;
4432;SDS011;2229;48.708;9.706;2023-05-02T06:33:58;7.30;;;3.87;;
4432;SDS011;2229;48.708;9.706;2023-05-02T06:36:25;7.30;;;4.47;;
4432;SDS011;2229;48.708;9.706;2023-05-02T06:38:53;6.53;;;3.70;;
4432;SDS011;2229;48.708;9.706;2023-05-02T06:41:20;7.10;;;3.07;;
4432;SDS011;2229;48.708;9.706;2023-05-02T06:43:47;5.83;;;3.90;;
4432;SDS011;2229;48.708;9.706;2023-05-02T06:46:16;3.90;;;2.70;;
4432;SDS011;2229;48.708;9.706;2023-05-02T06:48:45;4.80;;;3.00;;
4432;SDS011;2229;48.708;9.706;2023-05-02T06:51:13;6.73;;;3.67;;
4432;SDS011;2229;48.708;9.706;2023-05-02T06:53:40;6.73;;;3.37;;
4432;SDS011;2229;48.708;9.706;2023-05-02T06:56:07;5.23;;;3.30;;
4432;SDS011;2229;48.708;9.706;2023-05-02T06:58:34;4.57;;;2.80;;
4432;SDS011;2229;48.708;9.706;2023-05-02T07:01:02;4.80;;;2.67;;
4432;SDS011;2229;48.708;9.706;2023-05-02T07:03:30;4.77;;;2.77;;
4432;SDS011;2229;48.708;9.706;2023-05-02T07:05:59;4.77;;;2.80;;
4432;SDS011;2229;48.708;9.706;2023-05-02T07:08:26;5.00;;;2.80;;
4432;SDS011;2229;48.708;9.706;2023-05-02T07:10:53;6.23;;;3.57;;
4432;SDS011;2229;48.708;9.706;2023-05-02T07:13:20;5.37;;;3.30;;
4432;SDS011;2229;48.708;9.706;2023-05-02T07:15:48;4.40;;;2.97;;
4432;SDS011;2229;48.708;9.706;2023-05-02T07:18:15;8.03;;;3.43;;
4432;SDS011;2229;48.708;9.706;2023-05-02T07:20:43;9.13;;;3.90;;
4432;SDS011;2229;48.708;9.706;2023-05-02T07:23:11;7.30;;;3.73;;
4432;SDS011;2229;48.708;9.706;2023-05-02T07:25:38;5.20;;;3.23;;
4432;SDS011;2229;48.708;9.706;2023-05-02T07:28:05;4.83;;;2.77;;
4432;SDS011;2229;48.708;9.706;2023-05-02T07:30:32;6.57;;;3.87;;
4432;SDS011;2229;48.708;9.706;2023-05-02T07:33:00;10.17;;;3.77;;
4432;SDS011;2229;48.708;9.706;2023-05-02T07:35:27;5.27;;;2.80;;
4432;SDS011;2229;48.708;9.706;2023-05-02T07:37:55;6.73;;;2.37;;
4432;SDS011;2229;48.708;9.706;2023-05-02T07:40:23;8.83;;;4.53;;
4432;SDS011;2229;48.708;9.706;2023-05-02T07:42:50;5.83;;;2.93;;
4432;SDS011;2229;48.708;9.706;2023-05-02T07:45:17;5.87;;;2.67;;
4432;SDS011;2229;48.708;9.706;2023-05-02T07:47:45;6.40;;;3.20;;
4432;SDS011;2229;48.708;9.706;2023-05-02T07:50:12;6.00;;;3.00;;
4432;SDS011;2229;48.708;9.706;2023-05-02T07:52:39;6.27;;;3.60;;
4432;SDS011;2229;48.708;9.706;2023-05-02T07:55:08;3.43;;;2.73;;
4432;SDS011;2229;48.708;9.706;2023-05-02T07:57:36;4.67;;;2.63;;
4432;SDS011;2229;48.708;9.706;2023-05-02T08:00:04;8.23;;;3.30;;
4432;SDS011;2229;48.708;9.706;2023-05-02T08:02:40;7.13;;;3.93;;
4432;SDS011;2229;48.708;9.706;2023-05-02T08:05:08;5.47;;;3.03;;
4432;SDS011;2229;48.708;9.706;2023-05-02T08:07:37;6.60;;;3.17;;
4432;SDS011;2229;48.708;9.706;2023-05-02T08:10:04;7.27;;;3.93;;
4432;SDS011;2229;48.708;9.706;2023-05-02T08:12:37;5.47;;;2.33;;
4432;SDS011;2229;48.708;9.706;2023-05-02T08:15:06;6.37;;;3.73;;
4432;SDS011;2229;48.708;9.706;2023-05-02T08:17:34;4.70;;;3.00;;
4432;SDS011;2229;48.708;9.706;2023-05-02T08:20:01;9.80;;;5.07;;
4432;SDS011;2229;48.708;9.706;2023-05-02T08:22:29;5.77;;;3.10;;
4432;SDS011;2229;48.708;9.706;2023-05-02T08:24:56;5.37;;;3.13;;
4432;SDS011;2229;48.708;9.706;2023-05-02T08:27:24;6.53;;;3.00;;
4432;SDS011;2229;48.708;9.706;2023-05-02T08:29:52;5.37;;;2.93;;
4432;SDS011;2229;48.708;9.706;2023-05-02T08:32:20;5.50;;;3.60;;
4432;SDS011;2229;48.708;9.706;2023-05-02T08:34:47;9.40;;;4.07;;
4432;SDS011;2229;48.708;9.706;2023-05-02T08:37:15;4.90;;;3.40;;
4432;SDS011;2229;48.708;9.706;2023-05-02T08:39:43;6.70;;;3.10;;
4432;SDS011;2229;48.708;9.706;2023-05-02T08:42:10;10.30;;;5.17;;
4432;SDS011;2229;48.708;9.706;2023-05-02T08:44:37;7.23;;;4.03;;
4432;SDS011;2229;48.708;9.706;2023-05-02T08:47:10;8.23;;;3.87;;
4432;SDS011;2229;48.708;9.706;2023-05-02T08:49:40;6.70;;;4.10;;
4432;SDS011;2229;48.708;9.706;2023-05-02T08:52:08;5.93;;;3.73;;
4432;SDS011;2229;48.708;9.706;2023-05-02T08:54:36;5.90;;;3.07;;
4432;SDS011;2229;48.708;9.706;2023-05-02T08:57:04;5.50;;;3.47;;
4432;SDS011;2229;48.708;9.706;2023-05-02T08:59:31;5.60;;;3.50;;
4432;SDS011;2229;48.708;9.706;2023-05-02T09:02:00;6.43;;;3.90;;
4432;SDS011;2229;48.708;9.706;2023-05-02T09:04:34;11.23;;;4.50;;
4432;SDS011;2229;48.708;9.706;2023-05-02T09:07:06;5.57;;;3.27;;
4432;SDS011;2229;48.708;9.706;2023-05-02T09:09:33;6.80;;;4.10;;
4432;SDS011;2229;48.708;9.706;2023-05-02T09:12:02;8.40;;;4.33;;
4432;SDS011;2229;48.708;9.706;2023-05-02T09:14:30;7.00;;;3.90;;
4432;SDS011;2229;48.708;9.706;2023-05-02T09:16:58;6.40;;;4.50;;
4432;SDS011;2229;48.708;9.706;2023-05-02T09:19:25;7.93;;;4.07;;
4432;SDS011;2229;48.708;9.706;2023-05-02T09:21:59;7.13;;;3.50;;
4432;SDS011;2229;48.708;9.706;2023-05-02T09:24:27;6.83;;;4.13;;
4432;SDS011;2229;48.708;9.706;2023-05-02T09:26:55;6.37;;;3.80;;
4432;SDS011;2229;48.708;9.706;2023-05-02T09:29:25;13.60;;;4.97;;
4432;SDS011;2229;48.708;9.706;2023-05-02T09:31:55;8.40;;;4.80;;
4432;SDS011;2229;48.708;9.706;2023-05-02T09:34:22;8.20;;;4.70;;
4432;SDS011;2229;48.708;9.706;2023-05-02T09:36:50;9.63;;;4.70;;
4432;SDS011;2229;48.708;9.706;2023-05-02T09:39:21;9.63;;;4.83;;
4432;SDS011;2229;48.708;9.706;2023-05-02T09:41:49;8.97;;;4.67;;
4432;SDS011;2229;48.708;9.706;2023-05-02T09:44:17;10.80;;;5.13;;
4432;SDS011;2229;48.708;9.706;2023-05-02T09:46:46;9.80;;;5.03;;
4432;SDS011;2229;48.708;9.706;2023-05-02T09:49:14;14.30;;;6.40;;
4432;SDS011;2229;48.708;9.706;2023-05-02T09:51:44;11.93;;;4.63;;
4432;SDS011;2229;48.708;9.706;2023-05-02T09:54:12;9.50;;;5.10;;
4432;SDS011;2229;48.708;9.706;2023-05-02T09:56:53;10.50;;;6.60;;
4432;SDS011;2229;48.708;9.706;2023-05-02T09:59:22;11.37;;;5.80;;
4432;SDS011;2229;48.708;9.706;2023-05-02T10:01:56;9.00;;;5.30;;
4432;SDS011;2229;48.708;9.706;2023-05-02T10:04:24;8.43;;;4.93;;
4432;SDS011;2229;48.708;9.706;2023-05-02T10:06:53;10.07;;;5.80;;
4432;SDS011;2229;48.708;9.706;2023-05-02T10:09:21;7.70;;;4.47;;
4432;SDS011;2229;48.708;9.706;2023-05-02T10:11:50;11.17;;;5.40;;
4432;SDS011;2229;48.708;9.706;2023-05-02T10:14:20;6.20;;;4.00;;
4432;SDS011;2229;48.708;9.706;2023-05-02T10:16:52;5.40;;;3.90;;
4432;SDS011;2229;48.708;9.706;2023-05-02T10:19:26;7.17;;;4.87;;
4432;SDS011;2229;48.708;9.706;2023-05-02T10:21:56;7.80;;;4.93;;
4432;SDS011;2229;48.708;9.706;2023-05-02T10:24:24;6.77;;;4.13;;
4432;SDS011;2229;48.708;9.706;2023-05-02T10:26:52;7.63;;;3.83;;
4432;SDS011;2229;48.708;9.706;2023-05-02T10:29:21;6.30;;;4.30;;
4432;SDS011;2229;48.708;9.706;2023-05-02T10:31:49;9.37;;;4.23;;
4432;SDS011;2229;48.708;9.706;2023-05-02T10:34:17;11.73;;;4.40;;
4432;SDS011;2229;48.708;9.706;2023-05-02T10:36:44;8.30;;;4.60;;
4432;SDS011;2229;48.708;9.706;2023-05-02T10:39:12;6.10;;;3.67;;
4432;SDS011;2229;48.708;9.706;2023-05-02T10:41:40;6.80;;;4.60;;
4432;SDS011;2229;48.708;9.706;2023-05-02T10:44:08;5.60;;;4.23;;
4432;SDS011;2229;48.708;9.706;2023-05-02T10:46:38;6.77;;;4.20;;
4432;SDS011;2229;48.708;9.706;2023-05-02T10:49:07;5.70;;;3.90;;
4432;SDS011;2229;48.708;9.706;2023-05-02T10:51:36;10.23;;;5.00;;
4432;SDS011;2229;48.708;9.706;2023-05-02T10:54:23;8.87;;;5.37;;
4432;SDS011;2229;48.708;9.706;2023-05-02T10:57:06;10.30;;;5.30;;
4432;SDS011;2229;48.708;9.706;2023-05-02T10:59:34;5.70;;;3.97;;
4432;SDS011;2229;48.708;9.706;2023-05-02T11:02:04;7.13;;;3.90;;
4432;SDS011;2229;48.708;9.706;2023-05-02T11:04:59;5.50;;;3.20;;
4432;SDS011;2229;48.708;9.706;2023-05-02T11:07:30;7.47;;;4.07;;
4432;SDS011;2229;48.708;9.706;2023-05-02T11:12:56;4.80;;;2.40;;
4432;SDS011;2229;48.708;9.706;2023-05-02T11:18:25;7.80;;;3.90;;
4432;SDS011;2229;48.708;9.706;2023-05-02T11:20:52;10.40;;;3.73;;
4432;SDS011;2229;48.708;9.706;2023-05-02T11:30:03;8.80;;;4.80;;
4432;SDS011;2229;48.708;9.706;2023-05-02T11:35:42;4.60;;;3.47;;
4432;SDS011;2229;48.708;9.706;2023-05-02T11:38:12;6.50;;;4.07;;
4432;SDS011;2229;48.708;9.706;2023-05-02T11:40:53;8.77;;;4.50;;
4432;SDS011;2229;48.708;9.706;2023-05-02T11:43:22;12.23;;;6.20;;
4432;SDS011;2229;48.708;9.706;2023-05-02T11:45:52;14.57;;;6.13;;
4432;SDS011;2229;48.708;9.706;2023-05-02T11:48:21;9.30;;;4.70;;
4432;SDS011;2229;48.708;9.706;2023-05-02T11:50:53;10.13;;;4.20;;
4432;SDS011;2229;48.708;9.706;2023-05-02T11:53:22;8.77;;;3.70;;
4432;SDS011;2229;48.708;9.706;2023-05-02T11:55:52;11.33;;;4.10;;
4432;SDS011;2229;48.708;9.706;2023-05-02T11:58:21;5.93;;;3.70;;
4432;SDS011;2229;48.708;9.706;2023-05-02T12:00:50;6.83;;;3.70;;
4432;SDS011;2229;48.708;9.706;2023-05-02T12:03:27;5.03;;;2.73;;
4432;SDS011;2229;48.708;9.706;2023-05-02T12:06:07;9.27;;;4.77;;
4432;SDS011;2229;48.708;9.706;2023-05-02T12:08:36;5.47;;;3.20;;
4432;SDS011;2229;48.708;9.706;2023-05-02T12:11:04;6.83;;;3.80;;
4432;SDS011;2229;48.708;9.706;2023-05-02T12:13:31;6.80;;;4.63;;
4432;SDS011;2229;48.708;9.706;2023-05-02T12:15:59;7.50;;;3.70;;
4432;SDS011;2229;48.708;9.706;2023-05-02T12:18:26;5.23;;;2.80;;
4432;SDS011;2229;48.708;9.706;2023-05-02T12:20:54;6.20;;;3.73;;
4432;SDS011;2229;48.708;9.706;2023-05-02T12:23:24;6.93;;;3.00;;
4432;SDS011;2229;48.708;9.706;2023-05-02T12:25:52;6.43;;;2.63;;
4432;SDS011;2229;48.708;9.706;2023-05-02T12:28:19;6.03;;;3.07;;
4432;SDS011;2229;48.708;9.706;2023-05-02T12:30:48;5.00;;;2.60;;
4432;SDS011;2229;48.708;9.706;2023-05-02T12:33:16;4.67;;;3.10;;
4432;SDS011;2229;48.708;9.706;2023-05-02T12:35:44;4.77;;;3.10;;
4432;SDS011;2229;48.708;9.706;2023-05-02T12:38:13;8.13;;;3.90;;
4432;SDS011;2229;48.708;9.706;2023-05-02T12:40:49;5.87;;;2.80;;
4432;SDS011;2229;48.708;9.706;2023-05-02T12:43:18;6.50;;;3.33;;
4432;SDS011;2229;48.708;9.706;2023-05-02T12:45:46;6.53;;;2.97;;
4432;SDS011;2229;48.708;9.706;2023-05-02T12:48:21;5.40;;;2.80;;
4432;SDS011;2229;48.708;9.706;2023-05-02T12:50:50;3.90;;;2.57;;
4432;SDS011;2229;48.708;9.706;2023-05-02T12:53:37;6.30;;;3.40;;
4432;SDS011;2229;48.708;9.706;2023-05-02T12:56:07;4.20;;;2.43;;
4432;SDS011;2229;48.708;9.706;2023-05-02T12:58:41;5.13;;;2.10;;
4432;SDS011;2229;48.708;9.706;2023-05-02T13:01:10;4.33;;;2.10;;
4432;SDS011;2229;48.708;9.706;2023-05-02T13:03:37;3.73;;;2.47;;
4432;SDS011;2229;48.708;9.706;2023-05-02T13:06:05;3.97;;;2.00;;
4432;SDS011;2229;48.708;9.706;2023-05-02T13:08:33;3.10;;;2.07;;
4432;SDS011;2229;48.708;9.706;2023-05-02T13:11:00;3.57;;;1.80;;
4432;SDS011;2229;48.708;9.706;2023-05-02T13:13:30;5.57;;;2.00;;
4432;SDS011;2229;48.708;9.706;2023-05-02T13:15:59;4.40;;;2.70;;
4432;SDS011;2229;48.708;9.706;2023-05-02T13:18:33;2.83;;;2.00;;
4432;SDS011;2229;48.708;9.706;2023-05-02T13:21:00;3.20;;;2.40;;
4432;SDS011;2229;48.708;9.706;2023-05-02T13:23:29;4.00;;;2.20;;
4432;SDS011;2229;48.708;9.706;2023-05-02T13:25:57;4.33;;;2.30;;
4432;SDS011;2229;48.708;9.706;2023-05-02T13:28:25;5.30;;;3.20;;
4432;SDS011;2229;48.708;9.706;2023-05-02T13:30:54;6.33;;;2.90;;
4432;SDS011;2229;48.708;9.706;2023-05-02T13:33:22;4.67;;;2.43;;
4432;SDS011;2229;48.708;9.706;2023-05-02T13:35:49;7.60;;;2.83;;
4432;SDS011;2229;48.708;9.706;2023-05-02T13:38:16;4.50;;;2.43;;
4432;SDS011;2229;48.708;9.706;2023-05-02T13:40:43;4.90;;;2.47;;
4432;SDS011;2229;48.708;9.706;2023-05-02T13:43:11;6.00;;;3.10;;
4432;SDS011;2229;48.708;9.706;2023-05-02T13:45:38;5.10;;;3.10;;
4432;SDS011;2229;48.708;9.706;2023-05-02T13:48:08;4.10;;;2.50;;
4432;SDS011;2229;48.708;9.706;2023-05-02T13:50:35;6.30;;;2.80;;
4432;SDS011;2229;48.708;9.706;2023-05-02T13:53:03;4.90;;;2.60;;
4432;SDS011;2229;48.708;9.706;2023-05-02T13:55:30;5.47;;;2.60;;
4432;SDS011;2229;48.708;9.706;2023-05-02T13:57:57;3.47;;;2.33;;
4432;SDS011;2229;48.708;9.706;2023-05-02T14:00:25;4.60;;;3.00;;
4432;SDS011;2229;48.708;9.706;2023-05-02T14:02:53;3.30;;;2.00;;
4432;SDS011;2229;48.708;9.706;2023-05-02T14:05:22;4.73;;;1.97;;
4432;SDS011;2229;48.708;9.706;2023-05-02T14:07:49;4.70;;;2.20;;
4432;SDS011;2229;48.708;9.706;2023-05-02T14:10:16;4.97;;;3.10;;
4432;SDS011;2229;48.708;9.706;2023-05-02T14:12:44;4.60;;;2.37;;
4432;SDS011;2229;48.708;9.706;2023-05-02T14:15:12;3.27;;;2.30;;
4432;SDS011;2229;48.708;9.706;2023-05-02T14:17:39;6.57;;;3.07;;
4432;SDS011;2229;48.708;9.706;2023-05-02T14:20:06;6.67;;;2.77;;
4432;SDS011;2229;48.708;9.706;2023-05-02T14:22:36;5.43;;;3.23;;
4432;SDS011;2229;48.708;9.706;2023-05-02T14:25:04;8.03;;;3.23;;
4432;SDS011;2229;48.708;9.706;2023-05-02T14:27:32;9.27;;;4.17;;
4432;SDS011;2229;48.708;9.706;2023-05-02T14:29:59;4.50;;;2.90;;
4432;SDS011;2229;48.708;9.706;2023-05-02T14:32:27;6.83;;;4.23;;
4432;SDS011;2229;48.708;9.706;2023-05-02T14:34:54;4.43;;;2.70;;
4432;SDS011;2229;48.708;9.706;2023-05-02T14:37:21;6.90;;;4.00;;
4432;SDS011;2229;48.708;9.706;2023-05-02T14:39:50;5.70;;;2.00;;
4432;SDS011;2229;48.708;9.706;2023-05-02T14:42:20;4.77;;;2.67;;
4432;SDS011;2229;48.708;9.706;2023-05-02T14:44:47;4.37;;;2.50;;
4432;SDS011;2229;48.708;9.706;2023-05-02T14:47:15;5.87;;;2.70;;
4432;SDS011;2229;48.708;9.706;2023-05-02T14:49:43;5.47;;;2.80;;
4432;SDS011;2229;48.708;9.706;2023-05-02T14:52:10;6.23;;;2.47;;
4432;SDS011;2229;48.708;9.706;2023-05-02T14:54:37;4.60;;;2.53;;
4432;SDS011;2229;48.708;9.706;2023-05-02T14:57:06;4.27;;;2.30;;
4432;SDS011;2229;48.708;9.706;2023-05-02T14:59:33;4.40;;;2.13;;
4432;SDS011;2229;48.708;9.706;2023-05-02T15:02:03;3.20;;;1.70;;
4432;SDS011;2229;48.708;9.706;2023-05-02T15:04:30;3.63;;;2.30;;
4432;SDS011;2229;48.708;9.706;2023-05-02T15:06:58;3.60;;;2.33;;
4432;SDS011;2229;48.708;9.706;2023-05-02T15:09:25;3.60;;;2.00;;
4432;SDS011;2229;48.708;9.706;2023-05-02T15:11:53;3.80;;;2.10;;
4432;SDS011;2229;48.708;9.706;2023-05-02T15:14:22;4.50;;;2.50;;
4432;SDS011;2229;48.708;9.706;2023-05-02T15:16:50;21.80;;;5.50;;
4432;SDS011;2229;48.708;9.706;2023-05-02T15:19:17;11.60;;;4.47;;
4432;SDS011;2229;48.708;9.706;2023-05-02T15:21:46;17.50;;;5.93;;
4432;SDS011;2229;48.708;9.706;2023-05-02T15:24:14;6.87;;;3.47;;
4432;SDS011;2229;48.708;9.706;2023-05-02T15:26:42;4.23;;;3.30;;
4432;SDS011;2229;48.708;9.706;2023-05-02T15:29:09;4.47;;;2.00;;
4432;SDS011;2229;48.708;9.706;2023-05-02T15:31:38;4.10;;;2.10;;
4432;SDS011;2229;48.708;9.706;2023-05-02T15:34:05;3.33;;;2.00;;
4432;SDS011;2229;48.708;9.706;2023-05-02T15:36:33;3.73;;;1.57;;
4432;SDS011;2229;48.708;9.706;2023-05-02T15:39:01;3.30;;;1.73;;
4432;SDS011;2229;48.708;9.706;2023-05-02T15:41:29;3.47;;;1.53;;
4432;SDS011;2229;48.708;9.706;2023-05-02T15:43:56;4.10;;;1.90;;